sensor_id;sensor_type;location;lat;lon;timestamp;pressure;altitude;pressure_sealevel;temperature;humidity
12247;BME280;6186;52.022;4.692;2023-04-23T00:01:05;100805.19;;;9.63;100.00
12247;BME280;6186;52.022;4.692;2023-04-23T00:03:31;100797.41;;;9.57;100.00
12247;BME280;6186;52.022;4.692;2023-04-23T00:05:57;100806.97;;;9.61;100.00
12247;BME280;6186;52.022;4.692;2023-04-23T00:08:22;100793.00;;;9.59;100.00
12247;BME280;6186;52.022;4.692;2023-04-23T00:10:48;100800.88;;;9.58;100.00
12247;BME280;6186;52.022;4.692;2023-04-23T00:13:14;100806.09;;;9.61;100.00
12247;BME280;6186;52.022;4.692;2023-04-23T00:15:39;100792.19;;;9.56;100.00
12247;BME280;6186;52.022;4.692;2023-04-23T00:18:04;100796.47;;;9.60;100.00
12247;BME280;6186;52.022;4.692;2023-04-23T00:20:30;100790.38;;;9.59;100.00
12247;BME280;6186;52.022;4.692;2023-04-23T00:22:55;100782.50;;;9.59;100.00
12247;BME280;6186;52.022;4.692;2023-04-23T00:25:20;100778.16;;;9.57;100.00
12247;BME280;6186;52.022;4.692;2023-04-23T00:27:46;100786.75;;;9.65;100.00
12247;BME280;6186;52.022;4.692;2023-04-23T00:30:11;100791.03;;;9.67;100.00
12247;BME280;6186;52.022;4.692;2023-04-23T00:32:36;100780.53;;;9.69;100.00
12247;BME280;6186;52.022;4.692;2023-04-23T00:35:02;100776.97;;;9.70;100.00
12247;BME280;6186;52.022;4.692;2023-04-23T00:37:27;100777.81;;;9.72;100.00
12247;BME280;6186;52.022;4.692;2023-04-23T00:39:52;100776.00;;;9.74;100.00
12247;BME280;6186;52.022;4.692;2023-04-23T00:42:17;100771.59;;;9.76;100.00
12247;BME280;6186;52.022;4.692;2023-04-23T00:44:43;100762.78;;;9.77;100.00
12247;BME280;6186;52.022;4.692;2023-04-23T00:47:09;100756.69;;;9.75;100.00
12247;BME280;6186;52.022;4.692;2023-04-23T00:49:35;100755.84;;;9.74;100.00
12247;BME280;6186;52.022;4.692;2023-04-23T00:52:01;100754.16;;;9.72;100.00
12247;BME280;6186;52.022;4.692;2023-04-23T00:54:26;100750.69;;;9.70;100.00
12247;BME280;6186;52.022;4.692;2023-04-23T00:56:52;100736.91;;;9.60;100.00
12247;BME280;6186;52.022;4.692;2023-04-23T00:59:19;100746.41;;;9.66;100.00
12247;BME280;6186;52.022;4.692;2023-04-23T01:01:44;100748.19;;;9.64;100.00
12247;BME280;6186;52.022;4.692;2023-04-23T01:04:13;100739.44;;;9.65;100.00
12247;BME280;6186;52.022;4.692;2023-04-23T01:06:40;100744.69;;;9.65;100.00
12247;BME280;6186;52.022;4.692;2023-04-23T01:09:07;100744.66;;;9.66;100.00
12247;BME280;6186;52.022;4.692;2023-04-23T01:11:32;100738.47;;;9.67;100.00
12247;BME280;6186;52.022;4.692;2023-04-23T01:13:58;100737.56;;;9.70;100.00
12247;BME280;6186;52.022;4.692;2023-04-23T01:16:23;100735.75;;;9.72;100.00
12247;BME280;6186;52.022;4.692;2023-04-23T01:18:48;100734.88;;;9.71;100.00
12247;BME280;6186;52.022;4.692;2023-04-23T01:21:15;100740.94;;;9.75;100.00
12247;BME280;6186;52.022;4.692;2023-04-23T01:23:42;100721.00;;;9.66;100.00
12247;BME280;6186;52.022;4.692;2023-04-23T01:26:07;100726.94;;;9.74;100.00
12247;BME280;6186;52.022;4.692;2023-04-23T01:28:33;100728.75;;;9.72;100.00
12247;BME280;6186;52.022;4.692;2023-04-23T01:30:59;100727.88;;;9.72;100.00
12247;BME280;6186;52.022;4.692;2023-04-23T01:33:25;100729.63;;;9.71;100.00
12247;BME280;6186;52.022;4.692;2023-04-23T01:35:51;100727.00;;;9.71;100.00
12247;BME280;6186;52.022;4.692;2023-04-23T01:38:17;100717.47;;;9.67;100.00
12247;BME280;6186;52.022;4.692;2023-04-23T01:40:43;100728.84;;;9.68;100.00
12247;BME280;6186;52.022;4.692;2023-04-23T01:43:08;100714.03;;;9.65;100.00
12247;BME280;6186;52.022;4.692;2023-04-23T01:45:34;100719.28;;;9.65;100.00
12247;BME280;6186;52.022;4.692;2023-04-23T01:47:59;100714.94;;;9.63;100.00
12247;BME280;6186;52.022;4.692;2023-04-23T01:50:25;100725.38;;;9.66;100.00
12247;BME280;6186;52.022;4.692;2023-04-23T01:52:50;100709.66;;;9.64;100.00
12247;BME280;6186;52.022;4.692;2023-04-23T01:55:16;100715.81;;;9.63;100.00
12247;BME280;6186;52.022;4.692;2023-04-23T01:57:41;100708.78;;;9.64;100.00
12247;BME280;6186;52.022;4.692;2023-04-23T02:00:09;100713.19;;;9.63;100.00
12247;BME280;6186;52.022;4.692;2023-04-23T02:02:34;100712.28;;;9.64;100.00
12247;BME280;6186;52.022;4.692;2023-04-23T02:05:00;100720.22;;;9.63;100.00
12247;BME280;6186;52.022;4.692;2023-04-23T02:07:26;100720.13;;;9.66;100.00
12247;BME280;6186;52.022;4.692;2023-04-23T02:09:51;100713.16;;;9.65;100.00
12247;BME280;6186;52.022;4.692;2023-04-23T02:12:16;100707.94;;;9.62;100.00
12247;BME280;6186;52.022;4.692;2023-04-23T02:14:42;100714.94;;;9.63;100.00
12247;BME280;6186;52.022;4.692;2023-04-23T02:17:07;100714.94;;;9.63;100.00
12247;BME280;6186;52.022;4.692;2023-04-23T02:19:32;100706.16;;;9.64;100.00
12247;BME280;6186;52.022;4.692;2023-04-23T02:21:57;100714.03;;;9.65;100.00
12247;BME280;6186;52.022;4.692;2023-04-23T02:24:23;100704.34;;;9.66;100.00
12247;BME280;6186;52.022;4.692;2023-04-23T02:26:48;100703.53;;;9.65;100.00
12247;BME280;6186;52.022;4.692;2023-04-23T02:29:13;100706.06;;;9.68;100.00
12247;BME280;6186;52.022;4.692;2023-04-23T02:31:38;100706.03;;;9.70;100.00
12247;BME280;6186;52.022;4.692;2023-04-23T02:34:03;100699.00;;;9.70;100.00
12247;BME280;6186;52.022;4.692;2023-04-23T02:36:29;100698.97;;;9.72;100.00
12247;BME280;6186;52.022;4.692;2023-04-23T02:38:54;100695.44;;;9.73;100.00
12247;BME280;6186;52.022;4.692;2023-04-23T02:41:19;100705.03;;;9.74;100.00
12247;BME280;6186;52.022;4.692;2023-04-23T02:43:44;100705.00;;;9.75;100.00
12247;BME280;6186;52.022;4.692;2023-04-23T02:46:10;100707.59;;;9.77;100.00
12247;BME280;6186;52.022;4.692;2023-04-23T02:48:37;100706.72;;;9.78;100.00
12247;BME280;6186;52.022;4.692;2023-04-23T02:51:04;100709.34;;;9.78;100.00
12247;BME280;6186;52.022;4.692;2023-04-23T02:53:29;100711.97;;;9.78;100.00
12247;BME280;6186;52.022;4.692;2023-04-23T02:55:54;100703.34;;;9.73;100.00
12247;BME280;6186;52.022;4.692;2023-04-23T02:58:19;100708.47;;;9.77;100.00
12247;BME280;6186;52.022;4.692;2023-04-23T03:00:45;100709.34;;;9.78;100.00
12247;BME280;6186;52.022;4.692;2023-04-23T03:03:10;100700.66;;;9.74;100.00
12247;BME280;6186;52.022;4.692;2023-04-23T03:05:35;100701.41;;;9.79;100.00
12247;BME280;6186;52.022;4.692;2023-04-23T03:08:00;100702.28;;;9.80;100.00
12247;BME280;6186;52.022;4.692;2023-04-23T03:10:26;100699.59;;;9.81;100.00
12247;BME280;6186;52.022;4.692;2023-04-23T03:12:51;100701.38;;;9.81;100.00
12247;BME280;6186;52.022;4.692;2023-04-23T03:15:16;100701.38;;;9.81;100.00
12247;BME280;6186;52.022;4.692;2023-04-23T03:17:41;100702.22;;;9.81;100.00
12247;BME280;6186;52.022;4.692;2023-04-23T03:20:08;100675.22;;;9.75;100.00
12247;BME280;6186;52.022;4.692;2023-04-23T03:22:33;100690.06;;;9.77;100.00
12247;BME280;6186;52.022;4.692;2023-04-23T03:24:59;100696.97;;;9.81;100.00
12247;BME280;6186;52.022;4.692;2023-04-23T03:27:24;100691.75;;;9.80;100.00
12247;BME280;6186;52.022;4.692;2023-04-23T03:29:49;100690.84;;;9.81;100.00
12247;BME280;6186;52.022;4.692;2023-04-23T03:32:14;100689.13;;;9.80;100.00
12247;BME280;6186;52.022;4.692;2023-04-23T03:34:40;100677.72;;;9.81;100.00
12247;BME280;6186;52.022;4.692;2023-04-23T03:37:05;100682.09;;;9.82;100.00
12247;BME280;6186;52.022;4.692;2023-04-23T03:39:30;100675.91;;;9.83;100.00
12247;BME280;6186;52.022;4.692;2023-04-23T03:41:55;100680.28;;;9.84;100.00
12247;BME280;6186;52.022;4.692;2023-04-23T03:44:20;100682.03;;;9.83;100.00
12247;BME280;6186;52.022;4.692;2023-04-23T03:46:46;100682.91;;;9.84;100.00
12247;BME280;6186;52.022;4.692;2023-04-23T03:49:11;100674.16;;;9.83;100.00
12247;BME280;6186;52.022;4.692;2023-04-23T03:51:36;100678.50;;;9.84;100.00
12247;BME280;6186;52.022;4.692;2023-04-23T03:54:01;100684.63;;;9.85;100.00
12247;BME280;6186;52.022;4.692;2023-04-23T03:56:26;100680.28;;;9.84;100.00
12247;BME280;6186;52.022;4.692;2023-04-23T03:58:52;100679.44;;;9.82;100.00
12247;BME280;6186;52.022;4.692;2023-04-23T04:01:17;100670.75;;;9.80;100.00
12247;BME280;6186;52.022;4.692;2023-04-23T04:03:42;100684.66;;;9.83;100.00
12247;BME280;6186;52.022;4.692;2023-04-23T04:06:08;100682.03;;;9.83;100.00
12247;BME280;6186;52.022;4.692;2023-04-23T04:08:33;100684.72;;;9.82;100.00
12247;BME280;6186;52.022;4.692;2023-04-23T04:10:58;100682.97;;;9.81;100.00
12247;BME280;6186;52.022;4.692;2023-04-23T04:13:23;100682.13;;;9.79;100.00
12247;BME280;6186;52.022;4.692;2023-04-23T04:15:49;100692.69;;;9.77;100.00
12247;BME280;6186;52.022;4.692;2023-04-23T04:18:14;100690.97;;;9.76;100.00
12247;BME280;6186;52.022;4.692;2023-04-23T04:20:39;100692.78;;;9.74;100.00
12247;BME280;6186;52.022;4.692;2023-04-23T04:23:04;100691.06;;;9.72;100.00
12247;BME280;6186;52.022;4.692;2023-04-23T04:25:30;100687.63;;;9.70;100.00
12247;BME280;6186;52.022;4.692;2023-04-23T04:27:55;100686.88;;;9.65;100.00
12247;BME280;6186;52.022;4.692;2023-04-23T04:30:20;100684.22;;;9.66;100.00
12247;BME280;6186;52.022;4.692;2023-04-23T04:32:45;100682.50;;;9.65;100.00
12247;BME280;6186;52.022;4.692;2023-04-23T04:35:11;100679.03;;;9.63;100.00
12247;BME280;6186;52.022;4.692;2023-04-23T04:37:36;100684.31;;;9.62;100.00
12247;BME280;6186;52.022;4.692;2023-04-23T04:40:01;100685.22;;;9.61;100.00
12247;BME280;6186;52.022;4.692;2023-04-23T04:42:26;100685.25;;;9.59;100.00
12247;BME280;6186;52.022;4.692;2023-04-23T04:44:52;100678.22;;;9.60;100.00
12247;BME280;6186;52.022;4.692;2023-04-23T04:47:17;100679.13;;;9.59;100.00
12247;BME280;6186;52.022;4.692;2023-04-23T04:49:42;100677.38;;;9.59;100.00
12247;BME280;6186;52.022;4.692;2023-04-23T04:52:08;100686.09;;;9.60;100.00
12247;BME280;6186;52.022;4.692;2023-04-23T04:54:33;100677.38;;;9.59;100.00
12247;BME280;6186;52.022;4.692;2023-04-23T04:56:58;100683.47;;;9.60;100.00
12247;BME280;6186;52.022;4.692;2023-04-23T04:59:23;100667.06;;;9.52;100.00
12247;BME280;6186;52.022;4.692;2023-04-23T05:01:49;100680.00;;;9.59;100.00
12247;BME280;6186;52.022;4.692;2023-04-23T05:04:14;100683.47;;;9.60;100.00
12247;BME280;6186;52.022;4.692;2023-04-23T05:06:39;100684.38;;;9.59;100.00
12247;BME280;6186;52.022;4.692;2023-04-23T05:09:04;100686.16;;;9.58;100.00
12247;BME280;6186;52.022;4.692;2023-04-23T05:11:30;100687.91;;;9.58;100.00
12247;BME280;6186;52.022;4.692;2023-04-23T05:13:55;100693.19;;;9.56;100.00
12247;BME280;6186;52.022;4.692;2023-04-23T05:16:20;100688.84;;;9.55;100.00
12247;BME280;6186;52.022;4.692;2023-04-23T05:18:46;100691.34;;;9.61;100.00
12247;BME280;6186;52.022;4.692;2023-04-23T05:21:11;100689.50;;;9.65;100.00
12247;BME280;6186;52.022;4.692;2023-04-23T05:23:36;100689.47;;;9.66;100.00
12247;BME280;6186;52.022;4.692;2023-04-23T05:26:02;100692.81;;;9.73;100.00
12247;BME280;6186;52.022;4.692;2023-04-23T05:28:28;100684.03;;;9.74;100.00
12247;BME280;6186;52.022;4.692;2023-04-23T05:30:54;100682.09;;;9.82;100.00
12247;BME280;6186;52.022;4.692;2023-04-23T05:33:19;100682.97;;;9.81;100.00
12247;BME280;6186;52.022;4.692;2023-04-23T05:35:44;100684.63;;;9.85;100.00
12247;BME280;6186;52.022;4.692;2023-04-23T05:38:09;100691.53;;;9.89;100.00
12247;BME280;6186;52.022;4.692;2023-04-23T05:40:35;100687.09;;;9.91;100.00
12247;BME280;6186;52.022;4.692;2023-04-23T05:43:00;100683.56;;;9.92;100.00
12247;BME280;6186;52.022;4.692;2023-04-23T05:45:26;100680.03;;;9.93;100.00
12247;BME280;6186;52.022;4.692;2023-04-23T05:47:51;100680.78;;;9.98;100.00
12247;BME280;6186;52.022;4.692;2023-04-23T05:50:17;100681.56;;;10.01;100.00
12247;BME280;6186;52.022;4.692;2023-04-23T05:52:43;100681.50;;;10.04;100.00
12247;BME280;6186;52.022;4.692;2023-04-23T05:55:09;100675.28;;;10.07;100.00
12247;BME280;6186;52.022;4.692;2023-04-23T05:57:37;100663.88;;;10.09;100.00
12247;BME280;6186;52.022;4.692;2023-04-23T06:00:04;100671.56;;;10.17;100.00
12247;BME280;6186;52.022;4.692;2023-04-23T06:02:30;100674.91;;;10.22;100.00
12247;BME280;6186;52.022;4.692;2023-04-23T06:04:55;100678.31;;;10.27;100.00
12247;BME280;6186;52.022;4.692;2023-04-23T06:07:21;100665.97;;;10.29;100.00
12247;BME280;6186;52.022;4.692;2023-04-23T06:09:46;100671.91;;;10.35;100.00
12247;BME280;6186;52.022;4.692;2023-04-23T06:12:11;100670.06;;;10.40;100.00
12247;BME280;6186;52.022;4.692;2023-04-23T06:14:36;100666.38;;;10.46;100.00
12247;BME280;6186;52.022;4.692;2023-04-23T06:17:01;100659.34;;;10.47;100.00
12247;BME280;6186;52.022;4.692;2023-04-23T06:19:27;100667.84;;;10.56;100.00
12247;BME280;6186;52.022;4.692;2023-04-23T06:21:52;100656.31;;;10.60;100.00
12247;BME280;6186;52.022;4.692;2023-04-23T06:24:18;100665.78;;;10.67;100.00
12247;BME280;6186;52.022;4.692;2023-04-23T06:26:43;100658.63;;;10.72;100.00
12247;BME280;6186;52.022;4.692;2023-04-23T06:29:08;100652.34;;;10.76;100.00
12247;BME280;6186;52.022;4.692;2023-04-23T06:31:33;100656.53;;;10.83;100.00
12247;BME280;6186;52.022;4.692;2023-04-23T06:33:59;100651.97;;;10.88;100.00
12247;BME280;6186;52.022;4.692;2023-04-23T06:36:24;100642.19;;;10.93;100.00
12247;BME280;6186;52.022;4.692;2023-04-23T06:38:49;100640.28;;;10.98;100.00
12247;BME280;6186;52.022;4.692;2023-04-23T06:41:14;100638.41;;;11.02;100.00
12247;BME280;6186;52.022;4.692;2023-04-23T06:43:41;100639.88;;;11.12;100.00
12247;BME280;6186;52.022;4.692;2023-04-23T06:46:06;100646.66;;;11.19;100.00
12247;BME280;6186;52.022;4.692;2023-04-23T06:48:31;100641.97;;;11.28;100.00
12247;BME280;6186;52.022;4.692;2023-04-23T06:50:57;100649.56;;;11.39;100.00
12247;BME280;6186;52.022;4.692;2023-04-23T06:53:22;100641.34;;;11.48;100.00
12247;BME280;6186;52.022;4.692;2023-04-23T06:55:47;100611.78;;;11.38;100.00
12247;BME280;6186;52.022;4.692;2023-04-23T06:58:12;100637.31;;;11.66;100.00
12247;BME280;6186;52.022;4.692;2023-04-23T07:00:38;100647.53;;;11.75;100.00
12247;BME280;6186;52.022;4.692;2023-04-23T07:03:03;100637.63;;;11.81;100.00
12247;BME280;6186;52.022;4.692;2023-04-23T07:05:28;100641.75;;;11.90;100.00
12247;BME280;6186;52.022;4.692;2023-04-23T07:07:53;100634.47;;;11.98;100.00
12247;BME280;6186;52.022;4.692;2023-04-23T07:10:19;100634.00;;;12.10;100.00
12247;BME280;6186;52.022;4.692;2023-04-23T07:12:44;100631.06;;;12.19;100.00
12247;BME280;6186;52.022;4.692;2023-04-23T07:15:10;100617.78;;;12.22;100.00
12247;BME280;6186;52.022;4.692;2023-04-23T07:17:35;100622.72;;;12.31;100.00
12247;BME280;6186;52.022;4.692;2023-04-23T07:20:00;100631.00;;;12.45;100.00
12247;BME280;6186;52.022;4.692;2023-04-23T07:22:26;100617.41;;;12.56;100.00
12247;BME280;6186;52.022;4.692;2023-04-23T07:24:51;100617.19;;;12.62;100.00
12247;BME280;6186;52.022;4.692;2023-04-23T07:27:17;100614.34;;;12.66;100.00
12247;BME280;6186;52.022;4.692;2023-04-23T07:29:42;100622.63;;;12.80;100.00
12247;BME280;6186;52.022;4.692;2023-04-23T07:32:07;100628.44;;;12.90;100.00
12247;BME280;6186;52.022;4.692;2023-04-23T07:34:33;100619.41;;;12.95;100.00
12247;BME280;6186;52.022;4.692;2023-04-23T07:36:58;100618.25;;;13.02;100.00
12247;BME280;6186;52.022;4.692;2023-04-23T07:39:23;100621.38;;;13.13;100.00
12247;BME280;6186;52.022;4.692;2023-04-23T07:41:48;100622.72;;;13.23;100.00
12247;BME280;6186;52.022;4.692;2023-04-23T07:44:14;100620.41;;;13.38;100.00
12247;BME280;6186;52.022;4.692;2023-04-23T07:46:39;100611.88;;;13.53;100.00
12247;BME280;6186;52.022;4.692;2023-04-23T07:49:04;100614.25;;;13.59;100.00
12247;BME280;6186;52.022;4.692;2023-04-23T07:51:29;100614.78;;;13.67;100.00
12247;BME280;6186;52.022;4.692;2023-04-23T07:53:55;100608.53;;;13.69;100.00
12247;BME280;6186;52.022;4.692;2023-04-23T07:56:20;100609.53;;;13.87;100.00
12247;BME280;6186;52.022;4.692;2023-04-23T07:58:46;100612.53;;;13.99;100.00
12247;BME280;6186;52.022;4.692;2023-04-23T08:01:11;100618.03;;;14.15;100.00
12247;BME280;6186;52.022;4.692;2023-04-23T08:03:36;100604.38;;;14.24;100.00
12247;BME280;6186;52.022;4.692;2023-04-23T08:06:01;100608.31;;;14.36;100.00
12247;BME280;6186;52.022;4.692;2023-04-23T08:08:27;100599.03;;;14.46;100.00
12247;BME280;6186;52.022;4.692;2023-04-23T08:10:52;100595.91;;;14.56;100.00
12247;BME280;6186;52.022;4.692;2023-04-23T08:13:17;100588.47;;;14.64;100.00
12247;BME280;6186;52.022;4.692;2023-04-23T08:15:42;100591.47;;;14.75;100.00
12247;BME280;6186;52.022;4.692;2023-04-23T08:18:08;100581.44;;;14.82;100.00
12247;BME280;6186;52.022;4.692;2023-04-23T08:20:33;100598.28;;;14.99;100.00
12247;BME280;6186;52.022;4.692;2023-04-23T08:22:58;100578.72;;;15.02;100.00
12247;BME280;6186;52.022;4.692;2023-04-23T08:25:24;100580.84;;;15.13;100.00
12247;BME280;6186;52.022;4.692;2023-04-23T08:27:49;100595.41;;;15.23;100.00
12247;BME280;6186;52.022;4.692;2023-04-23T08:30:14;100594.88;;;15.33;100.00
12247;BME280;6186;52.022;4.692;2023-04-23T08:32:40;100587.34;;;15.43;100.00
12247;BME280;6186;52.022;4.692;2023-04-23T08:35:06;100585.19;;;15.51;100.00
12247;BME280;6186;52.022;4.692;2023-04-23T08:37:31;100592.56;;;15.63;100.00
12247;BME280;6186;52.022;4.692;2023-04-23T08:39:56;100581.56;;;15.70;100.00
12247;BME280;6186;52.022;4.692;2023-04-23T08:42:51;100593.88;;;15.88;100.00
12247;BME280;6186;52.022;4.692;2023-04-23T08:45:18;100597.72;;;16.00;100.00
12247;BME280;6186;52.022;4.692;2023-04-23T08:47:44;100593.97;;;16.04;100.00
12247;BME280;6186;52.022;4.692;2023-04-23T08:50:11;100594.59;;;16.09;100.00
12247;BME280;6186;52.022;4.692;2023-04-23T08:52:39;100592.88;;;16.25;100.00
12247;BME280;6186;52.022;4.692;2023-04-23T08:55:06;100589.63;;;16.36;100.00
12247;BME280;6186;52.022;4.692;2023-04-23T08:57:33;100594.16;;;16.51;100.00
12247;BME280;6186;52.022;4.692;2023-04-23T08:59:59;100590.59;;;16.67;100.00
12247;BME280;6186;52.022;4.692;2023-04-23T09:02:26;100601.25;;;16.83;100.00
12247;BME280;6186;52.022;4.692;2023-04-23T09:04:52;100597.31;;;16.90;100.00
12247;BME280;6186;52.022;4.692;2023-04-23T09:07:17;100587.75;;;17.03;100.00
12247;BME280;6186;52.022;4.692;2023-04-23T09:09:43;100588.75;;;17.32;100.00
12247;BME280;6186;52.022;4.692;2023-04-23T09:12:08;100583.28;;;17.50;100.00
12247;BME280;6186;52.022;4.692;2023-04-23T09:14:34;100590.88;;;17.72;100.00
12247;BME280;6186;52.022;4.692;2023-04-23T09:17:03;100590.16;;;17.84;100.00
12247;BME280;6186;52.022;4.692;2023-04-23T09:19:28;100589.06;;;18.02;100.00
12247;BME280;6186;52.022;4.692;2023-04-23T09:21:54;100582.03;;;18.15;100.00
12247;BME280;6186;52.022;4.692;2023-04-23T09:24:23;100565.13;;;18.16;100.00
12247;BME280;6186;52.022;4.692;2023-04-23T09:26:50;100575.88;;;18.29;100.00
12247;BME280;6186;52.022;4.692;2023-04-23T09:29:17;100571.16;;;18.34;100.00
12247;BME280;6186;52.022;4.692;2023-04-23T09:31:46;100564.28;;;18.30;100.00
12247;BME280;6186;52.022;4.692;2023-04-23T09:34:20;100566.09;;;18.29;100.00
12247;BME280;6186;52.022;4.692;2023-04-23T09:36:47;100560.38;;;18.35;100.00
12247;BME280;6186;52.022;4.692;2023-04-23T09:39:14;100567.47;;;18.50;100.00
12247;BME280;6186;52.022;4.692;2023-04-23T09:41:39;100570.50;;;18.58;100.00
12247;BME280;6186;52.022;4.692;2023-04-23T09:44:05;100563.09;;;18.63;100.00
12247;BME280;6186;52.022;4.692;2023-04-23T09:46:37;100574.09;;;18.86;100.00
12247;BME280;6186;52.022;4.692;2023-04-23T09:49:04;100567.56;;;19.18;100.00
12247;BME280;6186;52.022;4.692;2023-04-23T09:51:29;100562.31;;;19.30;100.00
12247;BME280;6186;52.022;4.692;2023-04-23T09:53:55;100564.50;;;19.24;100.00
12247;BME280;6186;52.022;4.692;2023-04-23T09:56:20;100559.00;;;19.13;100.00
12247;BME280;6186;52.022;4.692;2023-04-23T09:58:46;100559.06;;;19.25;100.00
12247;BME280;6186;52.022;4.692;2023-04-23T10:01:11;100553.13;;;19.34;100.00
12247;BME280;6186;52.022;4.692;2023-04-23T10:03:41;100554.38;;;19.29;100.00
12247;BME280;6186;52.022;4.692;2023-04-23T10:06:06;100553.06;;;19.36;100.00
12247;BME280;6186;52.022;4.692;2023-04-23T10:08:32;100545.31;;;19.45;100.00
12247;BME280;6186;52.022;4.692;2023-04-23T10:10:57;100549.41;;;19.37;100.00
12247;BME280;6186;52.022;4.692;2023-04-23T10:13:22;100545.84;;;19.10;100.00
12247;BME280;6186;52.022;4.692;2023-04-23T10:15:48;100551.41;;;18.93;100.00
12247;BME280;6186;52.022;4.692;2023-04-23T10:18:13;100549.94;;;18.74;100.00
12247;BME280;6186;52.022;4.692;2023-04-23T10:20:39;100535.28;;;18.67;100.00
12247;BME280;6186;52.022;4.692;2023-04-23T10:23:04;100531.84;;;18.65;100.00
12247;BME280;6186;52.022;4.692;2023-04-23T10:25:31;100528.81;;;18.71;100.00
12247;BME280;6186;52.022;4.692;2023-04-23T10:27:59;100528.31;;;18.65;100.00
12247;BME280;6186;52.022;4.692;2023-04-23T10:30:27;100523.09;;;18.49;100.00
12247;BME280;6186;52.022;4.692;2023-04-23T10:32:54;100528.97;;;18.40;100.00
12247;BME280;6186;52.022;4.692;2023-04-23T10:35:20;100527.16;;;18.27;100.00
12247;BME280;6186;52.022;4.692;2023-04-23T10:37:47;100516.41;;;18.14;100.00
12247;BME280;6186;52.022;4.692;2023-04-23T10:40:15;100521.84;;;18.13;100.00
12247;BME280;6186;52.022;4.692;2023-04-23T10:42:43;100517.06;;;18.18;100.00
12247;BME280;6186;52.022;4.692;2023-04-23T10:45:16;100497.19;;;18.09;100.00
12247;BME280;6186;52.022;4.692;2023-04-23T10:47:42;100503.75;;;18.18;100.00
12247;BME280;6186;52.022;4.692;2023-04-23T10:50:18;100501.19;;;18.16;100.00
12247;BME280;6186;52.022;4.692;2023-04-23T10:52:44;100487.84;;;18.02;100.00
12247;BME280;6186;52.022;4.692;2023-04-23T10:55:18;100485.19;;;18.02;100.00
12247;BME280;6186;52.022;4.692;2023-04-23T10:58:01;100486.91;;;18.03;100.00
12247;BME280;6186;52.022;4.692;2023-04-23T11:00:27;100483.66;;;18.12;100.00
12247;BME280;6186;52.022;4.692;2023-04-23T11:02:54;100482.91;;;18.24;100.00
12247;BME280;6186;52.022;4.692;2023-04-23T11:05:21;100481.47;;;18.33;100.00
12247;BME280;6186;52.022;4.692;2023-04-23T11:08:06;100481.69;;;18.44;100.00
12247;BME280;6186;52.022;4.692;2023-04-23T11:10:32;100471.31;;;18.39;100.00
12247;BME280;6186;52.022;4.692;2023-04-23T11:13:23;100467.88;;;18.23;100.00
12247;BME280;6186;52.022;4.692;2023-04-23T11:16:27;100468.81;;;18.08;100.00
12247;BME280;6186;52.022;4.692;2023-04-23T11:18:59;100466.16;;;18.08;100.00
12247;BME280;6186;52.022;4.692;2023-04-23T11:26:56;100449.97;;;17.83;100.00
12247;BME280;6186;52.022;4.692;2023-04-23T11:29:23;100456.53;;;17.77;100.00
12247;BME280;6186;52.022;4.692;2023-04-23T11:31:49;100447.59;;;17.78;100.00
12247;BME280;6186;52.022;4.692;2023-04-23T11:34:16;100451.50;;;17.87;100.00
12247;BME280;6186;52.022;4.692;2023-04-23T11:36:41;100436.00;;;17.79;100.00
12247;BME280;6186;52.022;4.692;2023-04-23T11:39:06;100436.84;;;17.80;100.00
12247;BME280;6186;52.022;4.692;2023-04-23T11:41:32;100429.25;;;17.88;100.00
12247;BME280;6186;52.022;4.692;2023-04-23T11:43:57;100438.97;;;18.03;100.00
12247;BME280;6186;52.022;4.692;2023-04-23T11:46:22;100410.97;;;18.10;100.00
12247;BME280;6186;52.022;4.692;2023-04-23T11:48:47;100419.91;;;18.23;100.00
12247;BME280;6186;52.022;4.692;2023-04-23T11:51:13;100413.72;;;18.37;100.00
12247;BME280;6186;52.022;4.692;2023-04-23T11:53:45;100404.75;;;18.52;100.00
12247;BME280;6186;52.022;4.692;2023-04-23T11:56:10;100398.69;;;18.76;100.00
12247;BME280;6186;52.022;4.692;2023-04-23T11:58:35;100395.13;;;18.90;100.00
12247;BME280;6186;52.022;4.692;2023-04-23T12:01:01;100400.19;;;19.07;100.00
12247;BME280;6186;52.022;4.692;2023-04-23T12:03:26;100390.03;;;19.00;100.00
12247;BME280;6186;52.022;4.692;2023-04-23T12:05:51;100391.22;;;18.82;100.00
12247;BME280;6186;52.022;4.692;2023-04-23T12:08:18;100399.72;;;18.74;100.00
12247;BME280;6186;52.022;4.692;2023-04-23T12:13:24;100378.84;;;19.07;100.00
12247;BME280;6186;52.022;4.692;2023-04-23T12:15:52;100376.03;;;19.35;100.00
12247;BME280;6186;52.022;4.692;2023-04-23T12:18:18;100375.28;;;19.46;100.00
12247;BME280;6186;52.022;4.692;2023-04-23T12:20:44;100379.84;;;19.31;100.00
12247;BME280;6186;52.022;4.692;2023-04-23T12:23:09;100385.16;;;19.19;100.00
12247;BME280;6186;52.022;4.692;2023-04-23T12:25:35;100369.00;;;19.08;100.00
12247;BME280;6186;52.022;4.692;2023-04-23T12:28:01;100362.69;;;18.96;100.00
12247;BME280;6186;52.022;4.692;2023-04-23T12:30:28;100363.47;;;18.98;100.00
12247;BME280;6186;52.022;4.692;2023-04-23T12:33:03;100363.09;;;18.90;100.00
12247;BME280;6186;52.022;4.692;2023-04-23T12:35:42;100357.78;;;18.90;100.00
12247;BME280;6186;52.022;4.692;2023-04-23T12:38:29;100362.47;;;18.87;100.00
12247;BME280;6186;52.022;4.692;2023-04-23T12:40:57;100359.63;;;18.75;100.00
12247;BME280;6186;52.022;4.692;2023-04-23T12:43:24;100354.25;;;18.63;100.00
12247;BME280;6186;52.022;4.692;2023-04-23T12:45:49;100344.38;;;18.51;100.00
12247;BME280;6186;52.022;4.692;2023-04-23T12:48:14;100348.59;;;18.41;100.00
12247;BME280;6186;52.022;4.692;2023-04-23T12:50:40;100346.06;;;18.25;100.00
12247;BME280;6186;52.022;4.692;2023-04-23T12:53:05;100347.81;;;18.12;100.00
12247;BME280;6186;52.022;4.692;2023-04-23T12:55:32;100337.94;;;18.00;100.00
12247;BME280;6186;52.022;4.692;2023-04-23T12:57:58;100340.25;;;17.92;100.00